CHRK1: Big Hill Creek, Cherryvale, KS

                                SHEF ID:       CHRK1     BIG HILL C NR CHERRYVALE, KS
STATION TYPE:
Regulating: Stage = 15.00, Flow = 1525

PRECIP STAGE RIV-FLOW BAT-LOAD
in ft cfs volt
Ccp-Rev Ccp-Rev Ccp-Rev Ccp-Rev
(America/Chicago)
04/29 00:00 0.00 7.55 326 12.17
04/29 01:00 0.00 7.49 320 12.14
04/29 02:00 0.00 7.46 317 12.11
04/29 03:00 0.00 7.36 306 12.08
04/29 04:00 0.00 7.29 299 12.04
04/29 05:00 0.00 7.22 292 11.96
04/29 06:00 0.00 7.15 286 11.94
04/29 07:00 0.00 7.09 280 11.91
04/29 08:00 0.00 7.02 273 12.05
04/29 09:00 0.00 6.99 270 12.59
04/29 10:00 0.00 6.90 261 12.76
04/29 11:00 0.00 6.88 260 12.73
04/29 12:00 0.00 6.79 251 12.70
04/29 13:00 0.00 6.77 249 12.67
04/29 14:00 0.00 6.68 241 12.68
04/29 15:00 0.00 6.65 238 ----
04/29 16:00 0.00 6.58 232 12.62
04/29 17:00 0.00 6.55 229 12.54
04/29 18:00 0.00 6.46 221 12.49
04/29 19:00 0.00 6.43 219 12.46
04/29 20:00 0.00 6.36 213 12.36
04/29 21:00 0.00 6.33 210 12.24
04/29 22:00 0.00 6.27 205 12.22
04/29 23:00 ---- ---- ---- ----
Data processed at Thu 30Apr2026 04:37 GMT

NOTICE: If you are parsing this page

Please convert to using our Data API. Starting early 2026 we will be migrating to: https://water.usace.army.mil with modern pages rendered in JavaScript. When this migration completes you will no longer be able to scrape this page! CWMSDataAPI (CDA)

Timeseries IDs (TSIDs)

TSIDs used from left to right in the data table
CHER.Precip-Inc.Total.1Hour.1Hour.Ccp-Rev
CHER.Stage.Inst.1Hour.0.Ccp-Rev
CHER.Flow.Inst.1Hour.0.Ccp-Rev
CHER.Volt-Battery Load.Inst.1Hour.0.Ccp-Rev

                            

All information presented herein is the property of the government of the United States of America and may be revised or deleted at any time without prior notice. Dissemination of this information without the expressed written consent of the Public Affairs Office, Tulsa District U.S. Army Corps of Engineers is strictly prohibited. These data are gathered electronically and, as presented, have NOT undergone any form of quality control. These data are NOT guaranteed to be valid or correct.